Time;durP1;ratioP1;P1;durP2;ratioP2;P2;SDS_P1;SDS_P2;PMS_P1;PMS_P2;Temp;Humidity;BMP_temperature;BMP_pressure;BME280_temperature;BME280_humidity;BME280_pressure;Samples;Min_cycle;Max_cycle;Signal;HPM_P1;HPM_P2
2024/01/01 00:00:52;;;;;;;5.72;3.92;;;;;;;;;;5017805;28;20055;-74
2024/01/01 00:03:19;;;;;;;10.38;2.67;;;;;;;;;;5009000;28;20034;-74
2024/01/01 00:05:45;;;;;;;3.47;2.63;;;;;;;;;;5018264;28;20065;-75
2024/01/01 00:08:11;;;;;;;4.30;2.55;;;;;;;;;;5025365;28;20029;-74
2024/01/01 00:10:37;;;;;;;9.48;2.85;;;;;;;;;;5013785;28;20564;-74
2024/01/01 00:13:04;;;;;;;2.55;2.03;;;;;;;;;;5023381;28;20039;-74
2024/01/01 00:15:30;;;;;;;2.65;2.28;;;;;;;;;;5033417;28;20113;-74
2024/01/01 00:17:56;;;;;;;7.80;2.42;;;;;;;;;;5017933;28;20025;-74
2024/01/01 00:20:22;;;;;;;3.55;3.03;;;;;;;;;;5019456;28;20064;-74
2024/01/01 00:22:49;;;;;;;8.43;3.00;;;;;;;;;;5015452;28;20171;-74
2024/01/01 00:25:15;;;;;;;4.00;2.47;;;;;;;;;;5023383;28;20032;-74
2024/01/01 00:27:42;;;;;;;7.55;2.35;;;;;;;;;;5016350;28;20076;-74
2024/01/01 00:30:08;;;;;;;4.20;2.40;;;;;;;;;;5019550;28;20029;-74
2024/01/01 00:32:34;;;;;;;6.00;2.25;;;;;;;;;;5019325;28;20108;-74
2024/01/01 00:35:00;;;;;;;2.33;2.10;;;;;;;;;;5010401;28;20049;-74
2024/01/01 00:37:26;;;;;;;6.03;3.17;;;;;;;;;;5016162;28;20420;-74
2024/01/01 00:39:54;;;;;;;5.28;3.10;;;;;;;;;;5017762;28;20480;-74
2024/01/01 00:42:20;;;;;;;3.90;2.25;;;;;;;;;;5015114;28;20056;-75
2024/01/01 00:44:46;;;;;;;4.78;2.72;;;;;;;;;;5014995;28;20053;-74
2024/01/01 00:47:13;;;;;;;3.88;2.88;;;;;;;;;;5022283;28;20032;-74
2024/01/01 00:49:42;;;;;;;5.40;3.15;;;;;;;;;;5018962;28;20466;-75
2024/01/01 00:52:09;;;;;;;3.40;2.45;;;;;;;;;;5014911;28;20022;-74
2024/01/01 00:54:35;;;;;;;3.75;2.42;;;;;;;;;;5016195;28;20048;-74
2024/01/01 00:57:01;;;;;;;7.25;3.58;;;;;;;;;;5034122;28;20029;-74
2024/01/01 00:59:27;;;;;;;9.35;4.72;;;;;;;;;;5045772;28;20032;-75
2024/01/01 01:01:53;;;;;;;6.80;4.47;;;;;;;;;;5023230;28;20093;-74
2024/01/01 01:04:19;;;;;;;7.35;3.38;;;;;;;;;;5021322;28;20110;-75
2024/01/01 01:06:45;;;;;;;6.95;2.30;;;;;;;;;;5042476;28;20401;-74
2024/01/01 01:09:12;;;;;;;5.88;2.53;;;;;;;;;;5018967;28;20021;-74
2024/01/01 01:11:40;;;;;;;2.85;1.88;;;;;;;;;;5016262;28;20029;-75
2024/01/01 01:14:06;;;;;;;5.25;2.40;;;;;;;;;;5016024;28;20021;-74
2024/01/01 01:16:32;;;;;;;3.80;2.35;;;;;;;;;;5018959;28;20507;-75
2024/01/01 01:18:59;;;;;;;8.35;2.65;;;;;;;;;;5019219;28;20026;-75
2024/01/01 01:21:26;;;;;;;3.25;2.25;;;;;;;;;;5019041;28;20473;-74
2024/01/01 01:23:52;;;;;;;3.10;1.77;;;;;;;;;;5020837;28;20041;-74
2024/01/01 01:26:19;;;;;;;5.20;1.90;;;;;;;;;;5014127;28;20076;-74
2024/01/01 01:28:45;;;;;;;6.07;1.92;;;;;;;;;;5037643;28;20037;-74
2024/01/01 01:31:11;;;;;;;1.95;1.80;;;;;;;;;;5018993;28;20033;-74
2024/01/01 01:33:37;;;;;;;1.50;1.40;;;;;;;;;;5046526;28;20028;-74
2024/01/01 01:36:03;;;;;;;2.10;1.70;;;;;;;;;;5039474;28;20025;-74
2024/01/01 01:38:31;;;;;;;4.68;1.75;;;;;;;;;;5021594;28;20037;-75
2024/01/01 01:40:58;;;;;;;4.63;1.88;;;;;;;;;;5020016;28;20028;-74
2024/01/01 01:43:25;;;;;;;2.00;1.85;;;;;;;;;;5020817;28;20278;-74
2024/01/01 01:45:51;;;;;;;1.58;1.50;;;;;;;;;;5014042;28;20033;-74
2024/01/01 01:48:18;;;;;;;4.70;2.47;;;;;;;;;;5018009;28;20026;-74
2024/01/01 01:50:45;;;;;;;1.45;1.35;;;;;;;;;;5017333;28;20513;-74
2024/01/01 01:53:13;;;;;;;3.08;2.00;;;;;;;;;;5018636;28;20030;-74
2024/01/01 01:55:42;;;;;;;1.67;1.58;;;;;;;;;;5016145;28;20034;-74
2024/01/01 01:58:09;;;;;;;1.60;1.50;;;;;;;;;;5009959;28;20037;-74
2024/01/01 02:00:35;;;;;;;2.25;2.00;;;;;;;;;;5018012;28;20107;-74
2024/01/01 02:03:01;;;;;;;2.67;1.65;;;;;;;;;;5019007;28;20366;-74
2024/01/01 02:05:28;;;;;;;2.97;1.75;;;;;;;;;;5022870;28;20120;-75
2024/01/01 02:07:54;;;;;;;5.88;1.75;;;;;;;;;;5016018;28;20593;-74
2024/01/01 02:10:20;;;;;;;2.35;2.15;;;;;;;;;;5020536;28;20033;-74
2024/01/01 02:12:46;;;;;;;1.52;1.42;;;;;;;;;;5019324;28;20061;-74
2024/01/01 02:15:12;;;;;;;3.08;1.88;;;;;;;;;;5020738;28;20136;-74
2024/01/01 02:17:38;;;;;;;1.75;1.65;;;;;;;;;;5014471;28;20021;-74
2024/01/01 02:20:05;;;;;;;5.32;1.63;;;;;;;;;;5015181;28;20021;-74
2024/01/01 02:22:38;;;;;;;1.63;1.52;;;;;;;;;;5015194;28;20044;-75
2024/01/01 02:25:05;;;;;;;4.65;2.05;;;;;;;;;;5016528;28;20030;-75
2024/01/01 02:27:31;;;;;;;3.90;3.25;;;;;;;;;;5045092;28;20065;-74
2024/01/01 02:29:57;;;;;;;3.45;1.67;;;;;;;;;;5016448;28;20453;-74
2024/01/01 02:32:23;;;;;;;1.67;1.58;;;;;;;;;;5016147;28;20144;-74
2024/01/01 02:34:49;;;;;;;2.75;1.65;;;;;;;;;;5014382;28;20440;-75
2024/01/01 02:37:16;;;;;;;2.70;1.23;;;;;;;;;;5017976;28;20033;-75
2024/01/01 02:39:42;;;;;;;1.60;1.50;;;;;;;;;;5017989;28;20022;-74
2024/01/01 02:42:08;;;;;;;3.92;1.65;;;;;;;;;;5010066;28;20697;-74
2024/01/01 02:44:34;;;;;;;1.83;1.73;;;;;;;;;;5032891;28;20060;-74
2024/01/01 02:47:00;;;;;;;2.15;1.40;;;;;;;;;;5019405;28;20567;-74
2024/01/01 02:49:26;;;;;;;2.97;1.45;;;;;;;;;;5011209;28;20493;-74
2024/01/01 02:51:53;;;;;;;3.05;1.45;;;;;;;;;;5017435;28;20025;-75
2024/01/01 02:54:19;;;;;;;1.30;1.20;;;;;;;;;;5013913;28;20021;-74
2024/01/01 02:56:45;;;;;;;2.63;1.92;;;;;;;;;;5015800;28;20552;-74
2024/01/01 02:59:11;;;;;;;8.35;1.77;;;;;;;;;;5021343;28;20075;-74
2024/01/01 03:01:38;;;;;;;2.75;1.30;;;;;;;;;;5017197;28;20052;-74
2024/01/01 03:04:04;;;;;;;1.52;1.42;;;;;;;;;;5023392;28;20030;-74
2024/01/01 03:06:30;;;;;;;1.45;1.35;;;;;;;;;;5047082;28;20452;-74
2024/01/01 03:08:56;;;;;;;1.90;1.80;;;;;;;;;;5014128;28;20311;-74
2024/01/01 03:11:22;;;;;;;1.27;1.27;;;;;;;;;;5020661;28;20487;-75
2024/01/01 03:13:49;;;;;;;2.75;1.70;;;;;;;;;;5018324;28;20037;-74
2024/01/01 03:16:15;;;;;;;4.63;1.70;;;;;;;;;;5016256;28;20302;-74
2024/01/01 03:18:41;;;;;;;1.63;1.52;;;;;;;;;;5046734;28;20029;-75
2024/01/01 03:21:08;;;;;;;2.20;2.00;;;;;;;;;;5017128;28;20032;-74
2024/01/01 03:23:34;;;;;;;9.13;1.40;;;;;;;;;;5012588;28;20122;-74
2024/01/01 03:26:00;;;;;;;9.27;1.98;;;;;;;;;;5019816;28;20600;-75
2024/01/01 03:28:27;;;;;;;5.25;1.63;;;;;;;;;;5040539;28;20022;-75
2024/01/01 03:30:53;;;;;;;8.40;1.60;;;;;;;;;;5019701;28;20026;-74
2024/01/01 03:33:19;;;;;;;3.55;1.80;;;;;;;;;;5016763;28;20037;-75
2024/01/01 03:35:45;;;;;;;1.75;1.65;;;;;;;;;;5040492;28;20037;-75
2024/01/01 03:38:11;;;;;;;2.63;1.88;;;;;;;;;;5033718;28;20025;-74
2024/01/01 03:40:37;;;;;;;2.92;1.58;;;;;;;;;;5027293;28;20485;-74
2024/01/01 03:43:04;;;;;;;2.30;1.77;;;;;;;;;;5021942;28;20032;-75
2024/01/01 03:45:30;;;;;;;2.55;2.35;;;;;;;;;;5019963;28;20026;-75
2024/01/01 03:47:56;;;;;;;17.75;2.63;;;;;;;;;;5038157;28;21729;-75
2024/01/01 03:50:22;;;;;;;3.83;1.73;;;;;;;;;;5026729;28;20515;-74
2024/01/01 03:52:48;;;;;;;3.88;1.75;;;;;;;;;;5036669;28;20187;-74
2024/01/01 03:55:18;;;;;;;4.03;2.30;;;;;;;;;;5018144;28;20018;-75
2024/01/01 03:57:44;;;;;;;4.63;2.25;;;;;;;;;;5026168;28;20448;-75
2024/01/01 04:00:14;;;;;;;8.70;2.30;;;;;;;;;;5026526;28;20040;-74
2024/01/01 04:02:40;;;;;;;6.93;1.80;;;;;;;;;;5020290;28;20048;-75
2024/01/01 04:05:08;;;;;;;7.15;1.85;;;;;;;;;;5024735;28;20380;-75
2024/01/01 04:07:34;;;;;;;4.03;1.85;;;;;;;;;;5011729;28;20022;-74
2024/01/01 04:10:01;;;;;;;1.95;1.83;;;;;;;;;;5031660;28;20013;-75
2024/01/01 04:12:27;;;;;;;6.03;2.22;;;;;;;;;;5022039;28;20040;-75
2024/01/01 04:14:53;;;;;;;1.38;1.38;;;;;;;;;;5031311;28;20033;-75
2024/01/01 04:17:19;;;;;;;7.70;1.90;;;;;;;;;;5008834;28;20172;-75
2024/01/01 04:19:47;;;;;;;4.30;1.48;;;;;;;;;;5021221;28;20571;-75
2024/01/01 04:22:14;;;;;;;1.60;1.50;;;;;;;;;;5016713;28;20248;-74
2024/01/01 04:24:41;;;;;;;3.10;1.73;;;;;;;;;;5020511;28;20476;-75
2024/01/01 04:27:08;;;;;;;3.08;1.40;;;;;;;;;;5019182;28;20362;-74
2024/01/01 04:29:34;;;;;;;5.95;1.92;;;;;;;;;;5020706;28;20385;-74
2024/01/01 04:32:00;;;;;;;3.00;1.58;;;;;;;;;;5020855;28;20068;-74
2024/01/01 04:34:26;;;;;;;1.95;1.85;;;;;;;;;;5019306;28;20029;-74
2024/01/01 04:36:52;;;;;;;4.10;1.92;;;;;;;;;;5041740;28;20124;-74
2024/01/01 04:39:18;;;;;;;2.13;1.63;;;;;;;;;;5018115;28;20117;-75
2024/01/01 04:41:44;;;;;;;2.63;1.90;;;;;;;;;;5021724;28;20181;-74
2024/01/01 04:44:11;;;;;;;3.83;1.63;;;;;;;;;;5022260;28;20030;-74
2024/01/01 04:46:37;;;;;;;5.07;1.40;;;;;;;;;;5038581;28;20028;-75
2024/01/01 04:49:03;;;;;;;3.88;1.92;;;;;;;;;;5024202;28;20021;-74
2024/01/01 04:51:30;;;;;;;1.38;1.38;;;;;;;;;;5020876;28;20022;-75
2024/01/01 04:53:56;;;;;;;4.47;1.77;;;;;;;;;;5021957;28;20033;-75
2024/01/01 04:56:23;;;;;;;4.82;1.77;;;;;;;;;;5020973;28;20055;-75
2024/01/01 04:58:49;;;;;;;2.05;1.90;;;;;;;;;;5028843;28;20040;-75
2024/01/01 05:01:15;;;;;;;2.22;1.70;;;;;;;;;;5032826;28;20057;-75
2024/01/01 05:03:41;;;;;;;2.42;2.25;;;;;;;;;;5017302;28;20515;-74
2024/01/01 05:06:07;;;;;;;1.45;1.35;;;;;;;;;;5018227;28;20043;-75
2024/01/01 05:08:34;;;;;;;5.38;2.03;;;;;;;;;;5018465;28;20030;-75
2024/01/01 05:11:03;;;;;;;5.22;1.40;;;;;;;;;;5015493;28;20375;-75
2024/01/01 05:13:29;;;;;;;1.92;1.40;;;;;;;;;;5019612;28;20354;-75
2024/01/01 05:15:55;;;;;;;1.20;1.20;;;;;;;;;;5024840;28;20033;-75
2024/01/01 05:18:22;;;;;;;7.13;1.58;;;;;;;;;;5023677;28;20367;-75
2024/01/01 05:20:48;;;;;;;3.95;1.88;;;;;;;;;;5017531;28;20034;-74
2024/01/01 05:23:14;;;;;;;3.30;1.60;;;;;;;;;;5017984;28;20841;-75
2024/01/01 05:25:40;;;;;;;3.20;1.38;;;;;;;;;;5023235;28;20449;-75
2024/01/01 05:28:08;;;;;;;1.70;1.33;;;;;;;;;;5023848;28;20552;-75
2024/01/01 05:30:37;;;;;;;3.13;1.45;;;;;;;;;;5021017;28;20022;-75
2024/01/01 05:33:03;;;;;;;1.80;1.63;;;;;;;;;;5021392;28;20064;-74
2024/01/01 05:35:31;;;;;;;8.73;1.77;;;;;;;;;;5017212;28;20076;-74
2024/01/01 05:37:57;;;;;;;1.33;1.33;;;;;;;;;;5039923;28;20087;-74
2024/01/01 05:40:23;;;;;;;2.97;1.60;;;;;;;;;;5017964;28;20029;-74
2024/01/01 05:42:49;;;;;;;1.27;1.27;;;;;;;;;;5020786;28;20073;-75
2024/01/01 05:45:16;;;;;;;1.17;1.17;;;;;;;;;;5044918;28;20382;-74
2024/01/01 05:47:42;;;;;;;8.98;1.88;;;;;;;;;;5021209;28;20883;-75
2024/01/01 05:50:08;;;;;;;7.07;2.55;;;;;;;;;;5018521;28;20041;-75
2024/01/01 05:52:35;;;;;;;3.63;1.60;;;;;;;;;;5014142;28;20393;-75
2024/01/01 05:55:01;;;;;;;3.97;1.85;;;;;;;;;;5031857;28;20674;-75
2024/01/01 05:57:27;;;;;;;13.15;2.65;;;;;;;;;;5019890;28;20119;-75
2024/01/01 05:59:53;;;;;;;2.58;1.90;;;;;;;;;;5018517;28;20087;-75
2024/01/01 06:02:19;;;;;;;5.38;1.80;;;;;;;;;;5022790;28;20037;-75
2024/01/01 06:04:45;;;;;;;4.93;2.13;;;;;;;;;;5015944;28;20093;-75
2024/01/01 06:07:13;;;;;;;15.43;2.42;;;;;;;;;;5021373;28;20113;-75
2024/01/01 06:09:39;;;;;;;3.50;2.00;;;;;;;;;;5023894;28;20495;-75
2024/01/01 06:12:06;;;;;;;4.70;1.60;;;;;;;;;;5019212;28;20607;-75
2024/01/01 06:14:32;;;;;;;3.28;2.28;;;;;;;;;;5022698;28;20275;-75
2024/01/01 06:16:58;;;;;;;2.42;1.60;;;;;;;;;;5023164;28;20037;-75
2024/01/01 06:19:25;;;;;;;5.85;2.25;;;;;;;;;;5041166;28;20663;-74
2024/01/01 06:21:51;;;;;;;5.15;1.92;;;;;;;;;;5037437;28;20394;-75
2024/01/01 06:24:17;;;;;;;4.60;1.70;;;;;;;;;;5019729;28;20030;-75
2024/01/01 06:26:43;;;;;;;1.75;1.65;;;;;;;;;;5023942;28;20040;-74
2024/01/01 06:29:09;;;;;;;2.58;1.52;;;;;;;;;;5011148;28;20030;-74
2024/01/01 06:31:35;;;;;;;3.88;1.95;;;;;;;;;;5019515;28;20021;-74
2024/01/01 06:34:03;;;;;;;8.63;2.13;;;;;;;;;;5018778;28;20025;-75
2024/01/01 06:36:29;;;;;;;12.23;1.88;;;;;;;;;;5038515;28;20029;-74
2024/01/01 06:38:55;;;;;;;4.80;1.85;;;;;;;;;;5018280;28;20121;-75
2024/01/01 06:41:22;;;;;;;6.45;1.88;;;;;;;;;;5022081;28;20036;-75
2024/01/01 06:43:48;;;;;;;4.97;3.00;;;;;;;;;;5018237;28;20033;-75
2024/01/01 06:46:14;;;;;;;1.77;1.67;;;;;;;;;;5023357;28;20532;-75
2024/01/01 06:48:40;;;;;;;2.05;1.85;;;;;;;;;;5018471;28;20025;-75
2024/01/01 06:51:11;;;;;;;1.90;1.77;;;;;;;;;;5020505;28;20045;-75
2024/01/01 06:53:37;;;;;;;6.55;2.15;;;;;;;;;;5017237;28;20354;-74
2024/01/01 06:56:03;;;;;;;6.72;2.58;;;;;;;;;;5039969;28;20595;-74
2024/01/01 06:58:29;;;;;;;2.97;1.63;;;;;;;;;;5018569;28;20075;-75
2024/01/01 07:00:55;;;;;;;7.28;1.88;;;;;;;;;;5022845;28;20393;-74
2024/01/01 07:03:21;;;;;;;2.40;2.13;;;;;;;;;;5015774;28;20089;-75
2024/01/01 07:05:47;;;;;;;1.55;1.40;;;;;;;;;;5037108;28;20211;-74
2024/01/01 07:08:14;;;;;;;1.65;1.55;;;;;;;;;;5012845;28;20033;-75
2024/01/01 07:10:40;;;;;;;2.17;1.88;;;;;;;;;;5016543;28;20026;-75
2024/01/01 07:13:07;;;;;;;2.45;1.85;;;;;;;;;;5016492;28;20032;-74
2024/01/01 07:15:33;;;;;;;1.42;1.35;;;;;;;;;;5018604;28;20627;-75
2024/01/01 07:17:59;;;;;;;3.63;1.95;;;;;;;;;;5024039;28;20022;-74
2024/01/01 07:20:26;;;;;;;6.57;1.60;;;;;;;;;;5016608;28;20030;-74
2024/01/01 07:22:52;;;;;;;5.88;1.30;;;;;;;;;;5019183;28;20596;-75
2024/01/01 07:25:18;;;;;;;4.85;1.45;;;;;;;;;;5023654;28;20030;-74
2024/01/01 07:27:44;;;;;;;1.02;1.02;;;;;;;;;;5021150;28;20111;-74
2024/01/01 07:30:10;;;;;;;1.20;1.20;;;;;;;;;;5010073;28;20383;-74
2024/01/01 07:32:36;;;;;;;4.57;2.08;;;;;;;;;;5015259;28;20472;-74
2024/01/01 07:35:04;;;;;;;1.77;1.67;;;;;;;;;;5009105;28;20503;-74
2024/01/01 07:37:30;;;;;;;1.42;1.42;;;;;;;;;;5010395;28;20441;-74
2024/01/01 07:39:56;;;;;;;1.50;1.40;;;;;;;;;;5014805;28;20370;-74
2024/01/01 07:42:22;;;;;;;1.40;1.40;;;;;;;;;;5010476;28;20038;-74
2024/01/01 07:44:49;;;;;;;2.00;1.48;;;;;;;;;;5009845;28;20029;-75
2024/01/01 07:47:16;;;;;;;11.10;2.35;;;;;;;;;;5015353;28;20022;-75
2024/01/01 07:49:45;;;;;;;2.50;1.70;;;;;;;;;;5012019;28;20504;-74
2024/01/01 07:52:11;;;;;;;11.68;1.67;;;;;;;;;;5012684;28;20045;-74
2024/01/01 07:54:39;;;;;;;2.20;1.67;;;;;;;;;;5008535;28;20103;-75
2024/01/01 07:57:06;;;;;;;1.83;1.30;;;;;;;;;;5008035;28;20065;-74
2024/01/01 07:59:33;;;;;;;2.65;2.03;;;;;;;;;;5014645;28;20030;-74
2024/01/01 08:01:59;;;;;;;1.15;1.15;;;;;;;;;;5018293;28;20233;-74
2024/01/01 08:04:26;;;;;;;1.98;1.88;;;;;;;;;;5036165;28;20044;-74
2024/01/01 08:06:52;;;;;;;6.25;1.52;;;;;;;;;;5016116;28;20026;-73
2024/01/01 08:09:18;;;;;;;5.70;2.30;;;;;;;;;;5011099;28;20025;-74
2024/01/01 08:11:44;;;;;;;11.27;2.33;;;;;;;;;;5010620;28;20026;-74
2024/01/01 08:14:11;;;;;;;2.67;1.70;;;;;;;;;;5023229;28;20093;-74
2024/01/01 08:16:37;;;;;;;1.45;1.35;;;;;;;;;;5016389;28;20075;-73
2024/01/01 08:19:03;;;;;;;3.40;1.75;;;;;;;;;;5017818;28;20033;-74
2024/01/01 08:21:29;;;;;;;8.60;2.08;;;;;;;;;;5022762;28;20021;-74
2024/01/01 08:23:56;;;;;;;2.13;1.77;;;;;;;;;;5015424;28;20046;-74
2024/01/01 08:26:22;;;;;;;2.80;2.15;;;;;;;;;;5020840;28;20037;-73
2024/01/01 08:28:51;;;;;;;7.55;2.67;;;;;;;;;;5024865;28;20060;-73
2024/01/01 08:31:20;;;;;;;10.35;2.47;;;;;;;;;;5017707;28;20400;-74
2024/01/01 08:33:46;;;;;;;13.25;3.25;;;;;;;;;;5022034;28;20100;-74
2024/01/01 08:36:13;;;;;;;3.17;1.73;;;;;;;;;;5042648;28;20033;-74
2024/01/01 08:38:39;;;;;;;3.78;1.52;;;;;;;;;;5045041;28;20029;-74
2024/01/01 08:41:05;;;;;;;1.15;1.15;;;;;;;;;;5019650;28;20128;-74
2024/01/01 08:43:32;;;;;;;3.53;2.22;;;;;;;;;;5018470;28;20619;-73
2024/01/01 08:46:00;;;;;;;6.78;1.70;;;;;;;;;;5017521;28;20025;-74
2024/01/01 08:48:26;;;;;;;5.38;2.25;;;;;;;;;;5023023;28;20051;-73
2024/01/01 08:50:52;;;;;;;2.75;1.90;;;;;;;;;;5024448;28;20885;-74
2024/01/01 08:53:18;;;;;;;1.58;1.33;;;;;;;;;;5018957;28;20535;-73
2024/01/01 08:55:44;;;;;;;6.25;2.15;;;;;;;;;;5019906;28;20125;-73
2024/01/01 08:58:11;;;;;;;5.28;1.40;;;;;;;;;;5027812;28;20064;-73
2024/01/01 09:00:37;;;;;;;2.30;2.10;;;;;;;;;;5015777;28;20033;-73
2024/01/01 09:03:03;;;;;;;1.70;1.60;;;;;;;;;;5018768;28;20030;-74
2024/01/01 09:05:29;;;;;;;1.55;1.45;;;;;;;;;;5018641;28;20507;-73
2024/01/01 09:07:56;;;;;;;7.55;2.25;;;;;;;;;;5035916;28;20464;-74
2024/01/01 09:10:22;;;;;;;1.17;1.17;;;;;;;;;;5015159;28;20053;-73
2024/01/01 09:12:49;;;;;;;6.50;1.90;;;;;;;;;;5007010;28;20100;-73
2024/01/01 09:15:15;;;;;;;9.73;2.40;;;;;;;;;;5020921;28;20136;-74
2024/01/01 09:17:43;;;;;;;6.00;1.75;;;;;;;;;;5015130;28;20033;-73
2024/01/01 09:20:09;;;;;;;12.23;1.95;;;;;;;;;;5036864;28;20089;-74
2024/01/01 09:22:35;;;;;;;6.85;1.92;;;;;;;;;;5018230;28;20025;-74
2024/01/01 09:25:02;;;;;;;3.50;1.58;;;;;;;;;;5021222;28;20064;-74
2024/01/01 09:27:28;;;;;;;6.43;1.88;;;;;;;;;;5017941;28;20026;-74
2024/01/01 09:29:54;;;;;;;14.50;2.45;;;;;;;;;;5021331;28;20040;-73
2024/01/01 09:32:21;;;;;;;3.65;1.38;;;;;;;;;;5018895;28;20021;-72
2024/01/01 09:34:47;;;;;;;1.38;1.27;;;;;;;;;;5015211;28;20049;-73
2024/01/01 09:37:13;;;;;;;3.63;1.92;;;;;;;;;;5022974;28;20075;-73
2024/01/01 09:39:39;;;;;;;2.03;1.63;;;;;;;;;;5021778;28;20029;-73
2024/01/01 09:42:05;;;;;;;4.05;1.80;;;;;;;;;;5038546;28;20546;-73
2024/01/01 09:44:32;;;;;;;1.80;1.70;;;;;;;;;;5020937;28;20029;-73
2024/01/01 09:46:59;;;;;;;7.45;2.30;;;;;;;;;;5025028;28;20048;-73
2024/01/01 09:49:25;;;;;;;4.63;1.73;;;;;;;;;;5021914;28;20034;-73
2024/01/01 09:51:51;;;;;;;7.57;2.53;;;;;;;;;;5021152;28;20026;-74
2024/01/01 09:54:18;;;;;;;7.28;2.03;;;;;;;;;;5020249;28;20026;-74
2024/01/01 09:56:44;;;;;;;14.15;2.33;;;;;;;;;;5018987;28;20029;-74
2024/01/01 09:59:10;;;;;;;1.63;1.52;;;;;;;;;;5020708;28;20036;-73
2024/01/01 10:01:38;;;;;;;6.68;2.20;;;;;;;;;;5021394;28;20033;-74
2024/01/01 10:04:07;;;;;;;2.80;1.80;;;;;;;;;;5022395;28;20037;-72
2024/01/01 10:06:36;;;;;;;5.90;2.15;;;;;;;;;;5017143;28;20032;-73
2024/01/01 10:09:09;;;;;;;6.03;1.98;;;;;;;;;;5022641;28;20034;-72
2024/01/01 10:11:40;;;;;;;6.13;1.65;;;;;;;;;;5022594;28;20046;-73
2024/01/01 10:14:12;;;;;;;3.25;1.65;;;;;;;;;;5039382;28;20492;-75
2024/01/01 10:16:39;;;;;;;1.63;1.58;;;;;;;;;;5021520;28;20059;-74
2024/01/01 10:19:06;;;;;;;15.82;1.95;;;;;;;;;;5025281;28;20034;-75
2024/01/01 10:21:35;;;;;;;4.05;1.58;;;;;;;;;;5022829;28;20075;-72
2024/01/01 10:24:21;;;;;;;2.63;1.70;;;;;;;;;;5020939;28;20560;-73
2024/01/01 10:26:48;;;;;;;3.40;1.98;;;;;;;;;;5021472;28;20095;-73
2024/01/01 10:29:16;;;;;;;8.05;2.03;;;;;;;;;;5024331;28;20033;-74
2024/01/01 10:31:45;;;;;;;4.22;2.25;;;;;;;;;;5022765;28;20047;-74
2024/01/01 10:34:15;;;;;;;5.28;2.03;;;;;;;;;;5019334;28;20050;-74
2024/01/01 10:36:42;;;;;;;5.78;1.90;;;;;;;;;;5022117;28;20119;-74
2024/01/01 10:39:12;;;;;;;5.22;2.28;;;;;;;;;;5023302;28;20028;-73
2024/01/01 10:41:39;;;;;;;6.93;2.53;;;;;;;;;;5022767;28;20021;-73
2024/01/01 10:44:08;;;;;;;6.18;2.38;;;;;;;;;;5036207;28;20190;-74
2024/01/01 10:46:37;;;;;;;8.15;3.30;;;;;;;;;;5028067;28;20025;-73
2024/01/01 10:49:05;;;;;;;4.15;2.03;;;;;;;;;;5022748;28;20021;-74
2024/01/01 10:51:34;;;;;;;4.45;2.13;;;;;;;;;;5025001;28;20385;-74
2024/01/01 10:54:16;;;;;;;7.97;1.70;;;;;;;;;;5025034;28;20148;-74
2024/01/01 10:57:08;;;;;;;11.05;2.78;;;;;;;;;;5021815;28;20032;-74
2024/01/01 10:59:44;;;;;;;4.45;2.15;;;;;;;;;;5039694;28;20030;-74
2024/01/01 11:02:11;;;;;;;3.78;2.33;;;;;;;;;;5022211;28;20441;-74
2024/01/01 11:04:37;;;;;;;4.68;2.30;;;;;;;;;;5021437;28;20041;-75
2024/01/01 11:07:04;;;;;;;6.88;3.17;;;;;;;;;;5020413;28;20067;-74
2024/01/01 11:09:31;;;;;;;7.05;2.88;;;;;;;;;;5018303;28;20127;-74
2024/01/01 11:12:00;;;;;;;4.88;2.15;;;;;;;;;;5017663;28;20033;-74
2024/01/01 11:14:27;;;;;;;2.97;1.90;;;;;;;;;;5019643;28;20029;-74
2024/01/01 11:16:54;;;;;;;9.43;2.40;;;;;;;;;;5018479;28;20373;-74
2024/01/01 11:19:36;;;;;;;8.65;3.05;;;;;;;;;;5014639;28;20549;-74
2024/01/01 11:22:28;;;;;;;5.97;3.65;;;;;;;;;;5021463;28;20999;-73
2024/01/01 11:24:54;;;;;;;9.60;5.13;;;;;;;;;;5021773;28;20079;-74
2024/01/01 11:27:47;;;;;;;9.82;4.68;;;;;;;;;;5021032;28;20065;-73
2024/01/01 11:30:16;;;;;;;10.02;7.00;;;;;;;;;;5014637;28;20038;-73
2024/01/01 11:32:42;;;;;;;12.00;4.50;;;;;;;;;;5018505;28;20436;-74
2024/01/01 11:35:14;;;;;;;8.27;4.30;;;;;;;;;;5011584;28;20042;-73
2024/01/01 11:37:42;;;;;;;5.10;4.20;;;;;;;;;;5016115;28;20400;-73
2024/01/01 11:40:09;;;;;;;11.48;2.90;;;;;;;;;;5018468;28;20026;-73
2024/01/01 11:42:36;;;;;;;10.75;2.88;;;;;;;;;;5026545;28;20513;-73
2024/01/01 11:45:12;;;;;;;7.50;4.65;;;;;;;;;;5027998;28;20034;-73
2024/01/01 11:47:39;;;;;;;7.00;4.80;;;;;;;;;;5011720;28;20358;-73
2024/01/01 11:50:06;;;;;;;3.63;2.20;;;;;;;;;;5010190;28;20038;-74
2024/01/01 11:52:32;;;;;;;9.57;4.85;;;;;;;;;;5020126;28;20025;-74
2024/01/01 11:54:59;;;;;;;2.90;1.92;;;;;;;;;;5017518;28;20030;-74
2024/01/01 11:57:26;;;;;;;2.47;1.83;;;;;;;;;;5016835;28;20033;-74
2024/01/01 11:59:52;;;;;;;3.30;3.00;;;;;;;;;;5017433;28;20128;-74
2024/01/01 12:02:19;;;;;;;2.80;1.80;;;;;;;;;;5021381;28;20029;-74
2024/01/01 12:04:46;;;;;;;14.75;2.30;;;;;;;;;;5022324;28;20036;-74
2024/01/01 12:07:26;;;;;;;10.57;2.15;;;;;;;;;;5021820;28;20022;-74
2024/01/01 12:10:09;;;;;;;6.95;2.72;;;;;;;;;;5019970;28;20030;-74
2024/01/01 12:12:36;;;;;;;4.68;2.55;;;;;;;;;;5017489;28;20384;-74
2024/01/01 12:15:14;;;;;;;11.20;2.15;;;;;;;;;;5017744;28;20032;-74
2024/01/01 12:17:44;;;;;;;3.30;2.22;;;;;;;;;;5022661;28;20041;-74
2024/01/01 12:20:11;;;;;;;7.88;3.15;;;;;;;;;;5027851;28;20053;-74
2024/01/01 12:22:38;;;;;;;14.50;5.80;;;;;;;;;;5023784;28;20416;-74
2024/01/01 12:25:04;;;;;;;18.63;5.47;;;;;;;;;;5019305;28;20080;-74
2024/01/01 12:27:30;;;;;;;9.98;5.40;;;;;;;;;;5023802;28;20083;-74
2024/01/01 12:29:57;;;;;;;12.38;5.15;;;;;;;;;;5028382;28;20113;-74
2024/01/01 12:32:23;;;;;;;13.05;5.55;;;;;;;;;;5035535;28;20048;-74
2024/01/01 12:34:53;;;;;;;18.20;5.93;;;;;;;;;;5019309;28;20033;-74
2024/01/01 12:37:19;;;;;;;9.68;4.38;;;;;;;;;;5017603;28;20068;-73
2024/01/01 12:39:45;;;;;;;10.77;3.85;;;;;;;;;;5020566;28;20552;-73
2024/01/01 12:42:11;;;;;;;11.38;5.32;;;;;;;;;;5036021;28;20377;-73
2024/01/01 12:44:38;;;;;;;9.70;3.72;;;;;;;;;;5022499;28;20099;-73
2024/01/01 12:47:04;;;;;;;4.93;2.60;;;;;;;;;;5022917;28;20087;-73
2024/01/01 12:49:34;;;;;;;4.90;2.20;;;;;;;;;;5021545;28;20397;-74
2024/01/01 12:52:00;;;;;;;4.38;2.80;;;;;;;;;;5014036;28;20370;-73
2024/01/01 12:54:26;;;;;;;4.35;2.33;;;;;;;;;;5021740;28;20028;-73
2024/01/01 12:56:52;;;;;;;3.92;2.50;;;;;;;;;;5015348;28;20033;-74
2024/01/01 12:59:20;;;;;;;6.15;2.63;;;;;;;;;;5038652;28;20061;-74
2024/01/01 13:01:46;;;;;;;3.83;2.13;;;;;;;;;;5016043;28;20521;-74
2024/01/01 13:04:13;;;;;;;7.32;2.63;;;;;;;;;;5020232;28;20481;-74
2024/01/01 13:06:39;;;;;;;3.63;2.40;;;;;;;;;;5017978;28;20033;-74
2024/01/01 13:09:06;;;;;;;2.53;2.10;;;;;;;;;;5021454;28;20108;-74
2024/01/01 13:11:33;;;;;;;3.72;2.20;;;;;;;;;;5034336;28;20033;-74
2024/01/01 13:13:59;;;;;;;3.20;2.35;;;;;;;;;;5013960;28;20671;-73
2024/01/01 13:16:25;;;;;;;4.32;2.60;;;;;;;;;;5022441;28;20480;-73
2024/01/01 13:18:51;;;;;;;7.95;3.13;;;;;;;;;;5017578;28;20073;-74
2024/01/01 13:21:18;;;;;;;8.48;4.40;;;;;;;;;;5026946;28;20026;-74
2024/01/01 13:23:44;;;;;;;5.40;3.53;;;;;;;;;;5018719;28;20037;-74
2024/01/01 13:26:10;;;;;;;7.63;3.42;;;;;;;;;;5035110;28;20036;-74
2024/01/01 13:28:36;;;;;;;7.40;3.70;;;;;;;;;;5015674;28;20022;-74
2024/01/01 13:31:03;;;;;;;10.48;3.90;;;;;;;;;;5037028;28;20022;-74
2024/01/01 13:33:29;;;;;;;10.15;3.60;;;;;;;;;;5021575;28;20018;-74
2024/01/01 13:35:55;;;;;;;8.02;3.83;;;;;;;;;;5021308;28;20069;-73
2024/01/01 13:38:21;;;;;;;13.40;7.22;;;;;;;;;;5016628;28;20513;-72
2024/01/01 13:40:47;;;;;;;5.00;3.47;;;;;;;;;;5035312;28;20076;-74
2024/01/01 13:43:14;;;;;;;5.70;3.35;;;;;;;;;;5019726;28;20093;-74
2024/01/01 13:45:41;;;;;;;10.82;3.22;;;;;;;;;;5018520;28;20021;-74
2024/01/01 13:48:12;;;;;;;4.57;2.60;;;;;;;;;;5016793;28;20029;-74
2024/01/01 13:50:39;;;;;;;12.65;7.47;;;;;;;;;;5014693;28;20046;-74
2024/01/01 13:53:06;;;;;;;8.75;4.35;;;;;;;;;;5036891;28;20034;-74
2024/01/01 13:55:32;;;;;;;6.50;3.40;;;;;;;;;;5011699;28;20037;-73
2024/01/01 13:58:01;;;;;;;7.38;3.53;;;;;;;;;;5033666;28;20172;-74
2024/01/01 14:00:27;;;;;;;6.45;4.10;;;;;;;;;;5016401;28;20112;-74
2024/01/01 14:02:54;;;;;;;14.30;6.63;;;;;;;;;;5023796;28;20439;-74
2024/01/01 14:05:20;;;;;;;7.13;3.45;;;;;;;;;;5018997;28;20057;-74
2024/01/01 14:07:48;;;;;;;9.05;4.25;;;;;;;;;;5013764;28;20029;-74
2024/01/01 14:10:15;;;;;;;4.82;2.85;;;;;;;;;;5017023;28;20214;-74
2024/01/01 14:12:42;;;;;;;7.78;4.88;;;;;;;;;;5019890;28;20394;-74
2024/01/01 14:15:08;;;;;;;8.45;4.13;;;;;;;;;;5018361;28;20867;-74
2024/01/01 14:17:34;;;;;;;5.55;3.38;;;;;;;;;;5029041;28;20099;-74
2024/01/01 14:20:00;;;;;;;5.22;2.40;;;;;;;;;;5012974;28;20743;-75
2024/01/01 14:22:26;;;;;;;5.90;3.45;;;;;;;;;;5012336;28;20481;-74
2024/01/01 14:24:52;;;;;;;8.70;3.33;;;;;;;;;;5036088;28;20060;-74
2024/01/01 14:27:19;;;;;;;7.28;3.28;;;;;;;;;;5012872;28;20105;-74
2024/01/01 14:29:46;;;;;;;5.72;3.25;;;;;;;;;;5031502;28;20506;-74
2024/01/01 14:32:15;;;;;;;6.70;2.80;;;;;;;;;;5017883;28;20014;-74
2024/01/01 14:34:41;;;;;;;2.97;2.38;;;;;;;;;;5029751;28;20081;-74
2024/01/01 14:37:07;;;;;;;5.10;3.05;;;;;;;;;;5019579;28;20033;-73
2024/01/01 14:39:34;;;;;;;3.20;2.75;;;;;;;;;;5019138;28;20021;-75